Time;durP1;ratioP1;P1;durP2;ratioP2;P2;SDS_P1;SDS_P2;PMS_P1;PMS_P2;Temp;Humidity;BMP_temperature;BMP_pressure;BME280_temperature;BME280_humidity;BME280_pressure;Samples;Min_cycle;Max_cycle;Signal;HPM_P1;HPM_P2
2024/04/17 00:01:05;;;;;;;5.03;1.73;;;;;;;;;;10768271;26;20059;-65
2024/04/17 00:05:59;;;;;;;3.33;1.92;;;;;;;;;;10768064;26;20031;-65
2024/04/17 00:10:54;;;;;;;14.05;3.58;;;;;;;;;;10766925;26;20407;-65
2024/04/17 00:15:49;;;;;;;15.55;2.58;;;;;;;;;;10783089;26;20008;-66
2024/04/17 00:20:43;;;;;;;9.10;2.20;;;;;;;;;;10769213;26;20011;-65
2024/04/17 00:25:37;;;;;;;6.95;2.15;;;;;;;;;;10766244;26;20004;-66
2024/04/17 00:30:32;;;;;;;7.90;1.80;;;;;;;;;;10764001;26;20001;-65
2024/04/17 00:35:26;;;;;;;10.27;2.50;;;;;;;;;;10760831;26;20012;-66
2024/04/17 00:40:21;;;;;;;6.18;1.70;;;;;;;;;;10766964;26;20027;-65
2024/04/17 00:45:15;;;;;;;9.90;2.22;;;;;;;;;;10767649;26;20028;-66
2024/04/17 00:50:11;;;;;;;9.10;2.05;;;;;;;;;;10764193;26;20020;-66
2024/04/17 00:55:06;;;;;;;15.43;2.33;;;;;;;;;;10728042;26;20000;-66
2024/04/17 01:00:03;;;;;;;10.27;2.83;;;;;;;;;;10759199;26;20142;-66
2024/04/17 01:04:57;;;;;;;8.48;2.10;;;;;;;;;;10756337;26;20016;-65
2024/04/17 01:09:54;;;;;;;7.20;2.30;;;;;;;;;;10763864;26;20001;-65
2024/04/17 01:14:49;;;;;;;6.13;1.85;;;;;;;;;;10776413;26;20351;-66
2024/04/17 01:19:43;;;;;;;8.10;2.13;;;;;;;;;;10765556;26;20005;-66
2024/04/17 01:24:37;;;;;;;6.07;2.35;;;;;;;;;;10735765;26;20131;-66
2024/04/17 01:29:32;;;;;;;12.82;2.92;;;;;;;;;;10765993;26;20004;-66
2024/04/17 01:34:26;;;;;;;7.47;2.38;;;;;;;;;;10757416;26;20004;-65
2024/04/17 01:39:21;;;;;;;9.20;2.55;;;;;;;;;;10765808;26;20048;-66
2024/04/17 01:44:15;;;;;;;4.95;2.17;;;;;;;;;;10757809;26;20014;-66
2024/04/17 01:49:22;;;;;;;9.38;3.45;;;;;;;;;;10764318;26;20004;-65
2024/04/17 01:54:17;;;;;;;8.43;1.98;;;;;;;;;;10761068;26;20016;-65
2024/04/17 01:59:12;;;;;;;8.25;2.50;;;;;;;;;;10765029;26;20004;-66
2024/04/17 02:04:07;;;;;;;9.63;2.65;;;;;;;;;;10765309;26;20051;-65
2024/04/17 02:09:02;;;;;;;6.00;2.08;;;;;;;;;;10763780;26;20417;-65
2024/04/17 02:13:56;;;;;;;10.23;2.70;;;;;;;;;;10785474;26;20008;-66
2024/04/17 02:18:51;;;;;;;13.30;2.13;;;;;;;;;;10764192;26;20472;-66
2024/04/17 02:23:48;;;;;;;10.10;2.67;;;;;;;;;;10764336;26;20004;-66
2024/04/17 02:28:43;;;;;;;9.02;2.67;;;;;;;;;;10766697;26;20004;-66
2024/04/17 02:33:37;;;;;;;5.80;2.10;;;;;;;;;;10759898;26;20004;-65
2024/04/17 02:38:33;;;;;;;10.82;2.75;;;;;;;;;;10764782;26;20652;-65
2024/04/17 02:43:27;;;;;;;7.20;2.85;;;;;;;;;;10760126;26;20012;-66
2024/04/17 02:48:21;;;;;;;13.77;2.90;;;;;;;;;;10764652;26;20008;-65
2024/04/17 02:53:16;;;;;;;10.13;2.22;;;;;;;;;;10761776;26;20407;-65
2024/04/17 02:58:11;;;;;;;13.38;2.40;;;;;;;;;;10756934;26;20004;-65
2024/04/17 03:03:07;;;;;;;8.93;3.30;;;;;;;;;;10762323;26;20335;-66
2024/04/17 03:08:02;;;;;;;8.18;2.83;;;;;;;;;;10764750;26;20019;-65
2024/04/17 03:12:56;;;;;;;8.02;3.83;;;;;;;;;;10780874;26;20041;-66
2024/04/17 03:17:50;;;;;;;9.68;2.80;;;;;;;;;;10761647;26;20004;-66
2024/04/17 03:22:45;;;;;;;5.13;2.45;;;;;;;;;;10761508;26;20032;-65
2024/04/17 03:27:40;;;;;;;4.25;3.13;;;;;;;;;;10796673;26;20019;-65
2024/04/17 03:32:34;;;;;;;6.18;2.88;;;;;;;;;;10794631;26;20500;-66
2024/04/17 03:37:29;;;;;;;5.13;3.15;;;;;;;;;;10798841;26;20305;-65
2024/04/17 03:42:23;;;;;;;4.88;3.28;;;;;;;;;;10794531;26;20077;-65
2024/04/17 03:47:18;;;;;;;5.07;2.88;;;;;;;;;;10792315;26;20007;-66
2024/04/17 03:52:12;;;;;;;8.15;3.40;;;;;;;;;;10798553;26;20602;-66
2024/04/17 03:57:06;;;;;;;8.85;2.88;;;;;;;;;;10794415;26;20394;-70
2024/04/17 04:02:05;;;;;;;3.42;2.75;;;;;;;;;;10826814;26;20019;-70
2024/04/17 04:07:05;;;;;;;4.30;3.03;;;;;;;;;;10765694;26;20339;-70
2024/04/17 04:12:00;;;;;;;3.55;2.72;;;;;;;;;;10783486;26;20003;-70
2024/04/17 04:16:54;;;;;;;3.22;2.65;;;;;;;;;;10778369;26;20014;-70
2024/04/17 04:21:49;;;;;;;6.45;2.78;;;;;;;;;;10792365;26;20010;-70
2024/04/17 04:26:44;;;;;;;4.28;2.75;;;;;;;;;;10831901;26;20003;-70
2024/04/17 04:31:38;;;;;;;2.97;2.60;;;;;;;;;;10787822;26;20018;-70
2024/04/17 04:36:33;;;;;;;3.35;2.65;;;;;;;;;;10821937;26;20003;-70
2024/04/17 04:41:27;;;;;;;7.35;3.33;;;;;;;;;;10803906;26;20004;-70
2024/04/17 04:46:21;;;;;;;8.70;5.00;;;;;;;;;;10763397;26;20344;-70
2024/04/17 04:51:16;;;;;;;8.27;3.95;;;;;;;;;;10767839;26;20063;-70
2024/04/17 04:56:10;;;;;;;13.55;5.20;;;;;;;;;;10767850;26;20937;-70
2024/04/17 05:01:05;;;;;;;6.25;3.53;;;;;;;;;;10767942;26;20011;-70
2024/04/17 05:06:00;;;;;;;7.88;3.47;;;;;;;;;;10763127;26;20090;-70
2024/04/17 05:10:54;;;;;;;4.93;3.28;;;;;;;;;;10766390;26;20008;-70
2024/04/17 05:15:49;;;;;;;6.78;4.15;;;;;;;;;;10766822;26;20222;-69
2024/04/17 05:20:44;;;;;;;8.30;3.70;;;;;;;;;;10764596;26;20057;-66
2024/04/17 05:25:40;;;;;;;7.47;4.10;;;;;;;;;;10766309;26;20004;-66
2024/04/17 05:30:34;;;;;;;9.88;5.90;;;;;;;;;;10764549;26;20070;-66
2024/04/17 05:35:29;;;;;;;9.82;7.03;;;;;;;;;;10763495;26;20031;-65
2024/04/17 05:40:24;;;;;;;14.00;7.75;;;;;;;;;;10764864;26;20027;-66
2024/04/17 05:45:18;;;;;;;12.90;6.68;;;;;;;;;;10764844;26;20005;-65
2024/04/17 05:50:12;;;;;;;13.40;8.02;;;;;;;;;;10753895;26;20647;-66
2024/04/17 05:55:07;;;;;;;17.25;8.20;;;;;;;;;;10768423;26;20016;-66
2024/04/17 06:00:01;;;;;;;11.82;7.10;;;;;;;;;;10764710;26;20004;-66
2024/04/17 06:04:58;;;;;;;13.52;6.68;;;;;;;;;;10763906;26;20178;-65
2024/04/17 06:09:54;;;;;;;21.45;6.57;;;;;;;;;;10763372;26;20005;-65
2024/04/17 06:14:48;;;;;;;14.18;6.90;;;;;;;;;;10771534;26;20004;-66
2024/04/17 06:19:42;;;;;;;17.52;7.25;;;;;;;;;;10793456;26;20053;-68
2024/04/17 06:24:37;;;;;;;12.10;6.85;;;;;;;;;;10804288;26;20015;-67
2024/04/17 06:29:31;;;;;;;9.55;6.60;;;;;;;;;;10812665;26;20047;-66
2024/04/17 06:34:25;;;;;;;16.42;7.35;;;;;;;;;;10803170;26;20325;-66
2024/04/17 06:39:20;;;;;;;13.77;7.07;;;;;;;;;;10805250;26;20467;-66
2024/04/17 06:44:16;;;;;;;11.75;6.35;;;;;;;;;;10797957;26;20045;-66
2024/04/17 06:49:12;;;;;;;15.85;6.40;;;;;;;;;;10778951;26;20441;-66
2024/04/17 06:54:08;;;;;;;12.68;6.40;;;;;;;;;;10759480;26;20004;-66
2024/04/17 06:59:02;;;;;;;12.43;6.35;;;;;;;;;;10790780;26;20003;-66
2024/04/17 07:03:56;;;;;;;15.15;7.03;;;;;;;;;;10779809;26;20005;-66
2024/04/17 07:08:51;;;;;;;14.05;6.45;;;;;;;;;;10762124;26;20027;-64
2024/04/17 07:13:45;;;;;;;19.45;5.90;;;;;;;;;;10771576;26;20016;-64
2024/04/17 07:18:40;;;;;;;10.23;6.43;;;;;;;;;;10749236;26;20012;-64
2024/04/17 07:23:34;;;;;;;15.25;5.90;;;;;;;;;;10748569;26;20524;-64
2024/04/17 07:28:29;;;;;;;17.85;5.93;;;;;;;;;;10768874;26;20074;-64
2024/04/17 07:33:22;;;;;;;14.90;6.65;;;;;;;;;;10767889;26;20016;-64
2024/04/17 07:38:17;;;;;;;9.88;5.50;;;;;;;;;;10767938;26;20040;-64
2024/04/17 07:43:10;;;;;;;11.90;5.70;;;;;;;;;;10774875;26;20012;-64
2024/04/17 07:48:07;;;;;;;21.88;4.93;;;;;;;;;;10766714;26;19999;-64
2024/04/17 07:53:02;;;;;;;23.55;6.00;;;;;;;;;;10803423;26;20004;-64
2024/04/17 07:57:56;;;;;;;11.35;5.15;;;;;;;;;;10778664;26;20068;-64
2024/04/17 08:02:50;;;;;;;17.50;5.10;;;;;;;;;;10767326;26;20282;-66
2024/04/17 08:07:45;;;;;;;19.33;7.03;;;;;;;;;;10764733;26;20009;-64
2024/04/17 08:12:41;;;;;;;14.50;5.43;;;;;;;;;;10768627;26;20032;-64
2024/04/17 08:17:35;;;;;;;8.25;4.68;;;;;;;;;;10760784;26;20019;-65
2024/04/17 08:22:29;;;;;;;11.82;5.47;;;;;;;;;;10766504;26;20004;-64
2024/04/17 08:27:23;;;;;;;12.07;5.82;;;;;;;;;;10765022;26;20004;-64
2024/04/17 08:32:19;;;;;;;17.08;4.55;;;;;;;;;;10767927;26;20016;-64
2024/04/17 08:37:13;;;;;;;7.65;4.43;;;;;;;;;;10765576;26;20003;-64
2024/04/17 08:42:07;;;;;;;8.00;5.22;;;;;;;;;;10764920;26;20143;-65
2024/04/17 08:47:03;;;;;;;9.40;4.40;;;;;;;;;;10773281;26;20000;-64
2024/04/17 08:52:03;;;;;;;12.30;4.50;;;;;;;;;;10766999;26;20008;-65
2024/04/17 08:56:57;;;;;;;15.90;4.68;;;;;;;;;;10767184;26;20004;-65
2024/04/17 09:01:53;;;;;;;15.18;5.00;;;;;;;;;;10773198;26;20011;-64
2024/04/17 09:06:47;;;;;;;11.50;4.05;;;;;;;;;;10766281;26;20082;-64
2024/04/17 09:11:40;;;;;;;14.48;4.85;;;;;;;;;;10765428;26;20000;-65
2024/04/17 09:16:36;;;;;;;10.10;4.60;;;;;;;;;;10742452;26;20027;-64
2024/04/17 09:21:30;;;;;;;9.18;4.90;;;;;;;;;;10765395;26;20592;-65
2024/04/17 09:26:25;;;;;;;10.18;3.72;;;;;;;;;;10763872;26;20087;-66
2024/04/17 09:31:19;;;;;;;11.02;4.93;;;;;;;;;;10762854;26;22654;-66
2024/04/17 09:36:14;;;;;;;6.97;3.97;;;;;;;;;;10713092;26;20340;-66
2024/04/17 09:41:08;;;;;;;7.28;2.72;;;;;;;;;;10769181;26;20000;-66
2024/04/17 09:46:25;;;;;;;8.23;3.22;;;;;;;;;;10734288;26;20012;-66
2024/04/17 09:51:21;;;;;;;7.82;2.55;;;;;;;;;;10765717;26;21066;-67
2024/04/17 09:56:15;;;;;;;6.03;2.30;;;;;;;;;;10764308;26;20086;-66
2024/04/17 10:01:10;;;;;;;8.70;2.97;;;;;;;;;;10765489;26;20431;-67
2024/04/17 10:06:06;;;;;;;8.30;2.75;;;;;;;;;;10768534;26;20475;-67
2024/04/17 10:11:00;;;;;;;7.18;3.17;;;;;;;;;;10765532;26;20424;-66
2024/04/17 10:15:55;;;;;;;13.63;2.92;;;;;;;;;;10715876;26;20004;-65
2024/04/17 10:20:49;;;;;;;7.05;2.80;;;;;;;;;;10761547;26;20110;-66
2024/04/17 10:26:10;;;;;;;8.67;2.93;;;;;;;;;;10765461;26;20019;-66
2024/04/17 10:31:04;;;;;;;6.38;2.67;;;;;;;;;;10752186;26;20285;-66
2024/04/17 10:36:02;;;;;;;11.80;3.00;;;;;;;;;;10761197;26;20004;-66
2024/04/17 10:40:58;;;;;;;2.95;1.83;;;;;;;;;;10734876;26;20004;-66
2024/04/17 10:45:59;;;;;;;6.68;2.63;;;;;;;;;;10759808;26;20305;-66
2024/04/17 10:50:53;;;;;;;6.97;2.97;;;;;;;;;;10754489;26;20000;-66
2024/04/17 10:55:50;;;;;;;4.78;1.85;;;;;;;;;;10751833;26;20048;-65
2024/04/17 11:00:44;;;;;;;8.88;1.63;;;;;;;;;;10760317;26;20390;-65
2024/04/17 11:05:38;;;;;;;2.53;2.05;;;;;;;;;;10769209;26;20004;-65
2024/04/17 11:10:32;;;;;;;3.92;2.20;;;;;;;;;;10762811;26;20015;-65
2024/04/17 11:15:26;;;;;;;4.65;2.38;;;;;;;;;;10757388;26;20404;-66
2024/04/17 11:20:20;;;;;;;4.97;1.20;;;;;;;;;;10755038;26;20003;-65
2024/04/17 11:25:15;;;;;;;2.53;1.25;;;;;;;;;;10761762;26;20004;-65
2024/04/17 11:30:18;;;;;;;2.67;1.40;;;;;;;;;;10754813;26;19999;-65
2024/04/17 11:35:14;;;;;;;5.45;1.30;;;;;;;;;;10753959;26;20028;-65
2024/04/17 11:40:10;;;;;;;5.07;1.80;;;;;;;;;;10775464;26;20159;-65
2024/04/17 11:45:28;;;;;;;10.85;1.63;;;;;;;;;;10728639;26;20088;-66
2024/04/17 11:50:22;;;;;;;;;;;;;;;;;;10760778;26;20004;-65
2024/04/17 11:55:17;;;;;;;3.88;1.70;;;;;;;;;;10765563;26;19925;-66
2024/04/17 12:00:12;;;;;;;2.53;1.33;;;;;;;;;;10765191;26;20008;-65
2024/04/17 12:05:08;;;;;;;2.70;1.25;;;;;;;;;;10766348;26;20032;-65
2024/04/17 12:10:02;;;;;;;4.15;1.30;;;;;;;;;;10767548;26;20095;-66
2024/04/17 12:14:58;;;;;;;4.50;2.05;;;;;;;;;;10776129;26;20004;-65
2024/04/17 12:19:51;;;;;;;2.33;1.52;;;;;;;;;;10770625;26;20006;-65
2024/04/17 12:29:58;;;;;;;1.50;1.13;;;;;;;;;;10781544;26;20016;-65
2024/04/17 12:34:52;;;;;;;2.80;1.20;;;;;;;;;;10768993;26;20015;-66
2024/04/17 12:39:46;;;;;;;4.55;1.63;;;;;;;;;;10764567;26;20004;-65
2024/04/17 12:44:40;;;;;;;4.60;1.52;;;;;;;;;;10765305;26;20000;-65
2024/04/17 12:49:33;;;;;;;4.15;1.10;;;;;;;;;;10766282;26;20439;-65
2024/04/17 12:54:28;;;;;;;7.00;1.83;;;;;;;;;;10772696;26;20509;-64
2024/04/17 12:59:22;;;;;;;4.40;1.45;;;;;;;;;;10767912;26;20008;-65
2024/04/17 13:04:17;;;;;;;2.47;1.15;;;;;;;;;;10776920;26;20004;-65
2024/04/17 13:09:13;;;;;;;1.20;1.10;;;;;;;;;;10771012;26;20031;-65
2024/04/17 13:14:08;;;;;;;2.05;0.93;;;;;;;;;;10772044;26;20011;-65
2024/04/17 13:19:02;;;;;;;1.58;1.00;;;;;;;;;;10767787;26;20000;-64
2024/04/17 13:23:56;;;;;;;1.13;0.90;;;;;;;;;;10765020;26;20015;-65
2024/04/17 13:28:49;;;;;;;3.65;1.08;;;;;;;;;;10766515;26;20472;-65
2024/04/17 13:33:43;;;;;;;3.42;1.33;;;;;;;;;;10767514;26;20012;-64
2024/04/17 13:38:40;;;;;;;2.85;1.25;;;;;;;;;;10763631;26;20519;-65
2024/04/17 13:43:36;;;;;;;2.15;1.00;;;;;;;;;;10768493;26;20004;-65
2024/04/17 13:48:30;;;;;;;10.73;1.50;;;;;;;;;;10765181;26;20014;-65
2024/04/17 13:53:24;;;;;;;4.70;2.13;;;;;;;;;;10772109;26;20014;-65
2024/04/17 13:58:19;;;;;;;8.93;1.88;;;;;;;;;;10752619;26;20016;-65
2024/04/17 14:03:12;;;;;;;2.63;1.20;;;;;;;;;;10764013;26;20005;-65
2024/04/17 14:08:07;;;;;;;3.95;1.33;;;;;;;;;;10760046;26;20432;-65
2024/04/17 14:13:01;;;;;;;3.83;1.77;;;;;;;;;;10758775;26;20449;-65
2024/04/17 14:17:55;;;;;;;4.07;1.60;;;;;;;;;;10764906;26;20004;-65
2024/04/17 14:22:50;;;;;;;2.70;1.80;;;;;;;;;;10762784;26;20004;-64
2024/04/17 14:27:44;;;;;;;3.33;1.10;;;;;;;;;;10762820;26;20000;-65
2024/04/17 14:32:38;;;;;;;3.05;1.33;;;;;;;;;;10765930;26;20004;-64
2024/04/17 14:37:32;;;;;;;1.17;0.90;;;;;;;;;;10758542;26;20000;-65
2024/04/17 14:42:26;;;;;;;6.63;0.98;;;;;;;;;;10755554;26;20061;-65
2024/04/17 14:47:20;;;;;;;3.42;1.38;;;;;;;;;;10751004;26;20032;-65
2024/04/17 14:52:15;;;;;;;1.38;1.02;;;;;;;;;;10744180;26;20078;-65
2024/04/17 14:57:09;;;;;;;3.17;1.10;;;;;;;;;;10761277;26;20004;-64
2024/04/17 15:02:04;;;;;;;1.48;1.00;;;;;;;;;;10757629;26;20032;-65
2024/04/17 15:06:57;;;;;;;5.47;0.93;;;;;;;;;;10754336;26;20010;-65
2024/04/17 15:11:51;;;;;;;2.63;1.05;;;;;;;;;;10769055;26;20003;-65
2024/04/17 15:16:45;;;;;;;1.85;0.93;;;;;;;;;;10768880;26;20008;-65
2024/04/17 15:21:39;;;;;;;3.08;1.15;;;;;;;;;;10764410;26;20018;-65
2024/04/17 15:26:31;;;;;;;1.25;0.80;;;;;;;;;;10760335;26;20087;-65
2024/04/17 15:31:27;;;;;;;0.88;0.77;;;;;;;;;;10758946;26;20015;-65
2024/04/17 15:36:24;;;;;;;1.25;0.70;;;;;;;;;;10759915;26;20015;-65
2024/04/17 15:41:18;;;;;;;0.90;0.77;;;;;;;;;;10764761;26;20008;-65
2024/04/17 15:46:16;;;;;;;3.15;1.50;;;;;;;;;;10760019;26;20000;-65
2024/04/17 15:51:10;;;;;;;6.55;1.40;;;;;;;;;;10771877;26;20000;-65
2024/04/17 15:56:12;;;;;;;3.58;1.88;;;;;;;;;;10770451;26;20004;-64
2024/04/17 16:01:08;;;;;;;6.53;1.35;;;;;;;;;;10768025;26;19997;-65
2024/04/17 16:06:30;;;;;;;4.00;1.65;;;;;;;;;;10765142;26;20329;-64
2024/04/17 16:11:25;;;;;;;3.35;1.23;;;;;;;;;;10777690;26;20080;-65
2024/04/17 16:16:20;;;;;;;7.57;2.50;;;;;;;;;;10773840;26;20014;-65
2024/04/17 16:21:16;;;;;;;2.88;1.65;;;;;;;;;;10785417;26;20018;-65
2024/04/17 16:26:14;;;;;;;2.17;1.02;;;;;;;;;;10764869;26;20525;-65
2024/04/17 16:31:16;;;;;;;4.00;1.90;;;;;;;;;;10777521;26;20000;-65
2024/04/17 16:36:10;;;;;;;4.90;1.95;;;;;;;;;;10757814;26;19996;-65
2024/04/17 16:41:06;;;;;;;4.60;2.72;;;;;;;;;;10761132;26;20063;-65
2024/04/17 16:46:08;;;;;;;9.27;1.63;;;;;;;;;;10765687;26;20014;-65
2024/04/17 16:51:02;;;;;;;3.63;1.38;;;;;;;;;;10764959;26;20111;-64
2024/04/17 16:55:56;;;;;;;6.15;1.30;;;;;;;;;;10750490;26;20004;-65
2024/04/17 17:00:58;;;;;;;4.68;1.20;;;;;;;;;;10774468;26;20005;-63
2024/04/17 17:05:59;;;;;;;3.47;1.30;;;;;;;;;;10762113;26;20447;-65
2024/04/17 17:10:53;;;;;;;2.58;1.50;;;;;;;;;;10785136;26;20004;-65
2024/04/17 17:15:47;;;;;;;4.43;1.38;;;;;;;;;;10776784;26;20078;-65
2024/04/17 17:20:40;;;;;;;3.90;1.10;;;;;;;;;;10765231;26;20032;-65
2024/04/17 17:25:36;;;;;;;2.95;1.30;;;;;;;;;;10770646;26;20048;-64
2024/04/17 17:30:34;;;;;;;4.63;1.00;;;;;;;;;;10764884;26;20454;-65
2024/04/17 17:35:28;;;;;;;2.93;1.37;;;;;;;;;;10762749;26;20004;-65
2024/04/17 17:40:23;;;;;;;2.00;1.00;;;;;;;;;;10767159;26;20294;-70
2024/04/17 17:45:17;;;;;;;5.10;1.85;;;;;;;;;;10766849;26;20018;-65
2024/04/17 17:50:10;;;;;;;2.47;2.28;;;;;;;;;;10766423;26;20000;-65
2024/04/17 17:55:06;;;;;;;11.07;1.80;;;;;;;;;;10764124;26;20344;-65
2024/04/17 18:00:00;;;;;;;13.48;1.33;;;;;;;;;;10766088;26;20357;-65
2024/04/17 18:05:04;;;;;;;1.45;0.95;;;;;;;;;;10763617;26;20480;-65
2024/04/17 18:09:59;;;;;;;3.47;1.65;;;;;;;;;;10762911;26;20082;-65
2024/04/17 18:14:54;;;;;;;6.93;1.80;;;;;;;;;;10762913;26;20001;-65
2024/04/17 18:19:58;;;;;;;6.80;4.55;;;;;;;;;;10760935;26;20000;-65
2024/04/17 18:25:06;;;;;;;2.00;1.40;;;;;;;;;;10756001;26;20333;-64
2024/04/17 18:30:00;;;;;;;3.60;3.00;;;;;;;;;;10763065;26;20016;-64
2024/04/17 18:34:54;;;;;;;7.30;3.25;;;;;;;;;;10765911;26;20078;-64
2024/04/17 18:39:53;;;;;;;8.73;4.50;;;;;;;;;;10759396;26;20103;-64
2024/04/17 18:44:47;;;;;;;17.83;4.28;;;;;;;;;;10771586;26;20084;-63
2024/04/17 18:49:42;;;;;;;10.32;4.20;;;;;;;;;;10783321;26;20019;-64
2024/04/17 18:54:37;;;;;;;7.57;2.72;;;;;;;;;;10762458;26;20004;-63
2024/04/17 18:59:30;;;;;;;2.85;1.65;;;;;;;;;;10758744;26;20004;-64
2024/04/17 19:04:26;;;;;;;4.00;1.70;;;;;;;;;;10765087;26;20004;-63
2024/04/17 19:09:21;;;;;;;7.57;2.70;;;;;;;;;;10779350;26;20012;-64
2024/04/17 19:14:16;;;;;;;5.03;1.23;;;;;;;;;;10765764;26;20015;-67
2024/04/17 19:19:11;;;;;;;6.15;1.65;;;;;;;;;;10762326;26;21040;-64
2024/04/17 19:24:06;;;;;;;2.08;1.45;;;;;;;;;;10759778;26;20004;-64
2024/04/17 19:28:59;;;;;;;4.63;1.58;;;;;;;;;;10767789;26;20080;-64
2024/04/17 19:33:55;;;;;;;2.83;1.65;;;;;;;;;;10749728;26;20340;-64
2024/04/17 19:39:14;;;;;;;5.78;2.28;;;;;;;;;;10753131;26;20004;-65
2024/04/17 19:44:10;;;;;;;2.97;1.70;;;;;;;;;;10753954;26;20408;-64
2024/04/17 19:49:06;;;;;;;11.15;3.05;;;;;;;;;;10753708;26;20004;-62
2024/04/17 19:54:01;;;;;;;9.48;4.40;;;;;;;;;;10755153;26;20313;-63
2024/04/17 19:58:56;;;;;;;20.63;3.75;;;;;;;;;;10756390;26;20008;-65
2024/04/17 20:03:50;;;;;;;9.52;2.38;;;;;;;;;;10752619;26;20012;-64
2024/04/17 20:08:45;;;;;;;9.25;2.65;;;;;;;;;;10754171;26;20475;-65
2024/04/17 20:13:40;;;;;;;10.77;2.78;;;;;;;;;;10762563;26;20038;-64
2024/04/17 20:18:36;;;;;;;6.93;3.40;;;;;;;;;;10755000;26;20019;-65
2024/04/17 20:23:32;;;;;;;3.85;2.28;;;;;;;;;;10753865;26;20773;-65
2024/04/17 20:28:27;;;;;;;5.03;2.50;;;;;;;;;;10724444;26;20015;-64
2024/04/17 20:33:22;;;;;;;3.58;2.67;;;;;;;;;;10753597;26;20016;-65
2024/04/17 20:38:16;;;;;;;2.92;2.47;;;;;;;;;;10754580;26;20004;-65
2024/04/17 20:43:10;;;;;;;7.30;2.22;;;;;;;;;;10752560;26;20411;-66
2024/04/17 20:48:06;;;;;;;10.35;3.90;;;;;;;;;;10752830;26;20077;-65
2024/04/17 20:53:01;;;;;;;3.88;2.40;;;;;;;;;;10752381;26;20000;-64
2024/04/17 20:57:55;;;;;;;5.82;2.10;;;;;;;;;;10752972;26;20016;-65
2024/04/17 21:02:49;;;;;;;2.30;1.70;;;;;;;;;;10798577;26;20009;-65
2024/04/17 21:07:45;;;;;;;10.63;2.10;;;;;;;;;;10818699;26;20487;-64
2024/04/17 21:12:39;;;;;;;4.15;1.50;;;;;;;;;;10816994;26;20311;-65
2024/04/17 21:17:32;;;;;;;3.58;1.80;;;;;;;;;;10814536;26;20019;-65
2024/04/17 21:22:27;;;;;;;1.60;1.50;;;;;;;;;;10790650;26;20080;-65
2024/04/17 21:27:21;;;;;;;11.05;2.35;;;;;;;;;;10803619;26;20339;-65
2024/04/17 21:32:18;;;;;;;1.98;1.50;;;;;;;;;;10818824;26;20081;-65
2024/04/17 21:37:16;;;;;;;4.57;2.40;;;;;;;;;;10770926;26;20027;-65
2024/04/17 21:42:10;;;;;;;3.85;1.98;;;;;;;;;;10752016;26;20098;-65
2024/04/17 21:47:05;;;;;;;3.83;2.00;;;;;;;;;;10754150;26;20023;-65
2024/04/17 21:52:01;;;;;;;4.72;2.08;;;;;;;;;;10764168;26;20016;-64
2024/04/17 21:56:55;;;;;;;2.30;1.83;;;;;;;;;;10763712;26;20023;-67
2024/04/17 22:01:49;;;;;;;6.82;2.88;;;;;;;;;;10763490;26;20004;-65
2024/04/17 22:06:43;;;;;;;3.78;1.75;;;;;;;;;;10763050;26;20012;-65
2024/04/17 22:11:37;;;;;;;4.10;1.40;;;;;;;;;;10775380;26;20015;-65
2024/04/17 22:16:32;;;;;;;8.18;1.60;;;;;;;;;;10766341;26;20012;-65
2024/04/17 22:21:26;;;;;;;4.60;1.60;;;;;;;;;;10806438;26;20008;-65
2024/04/17 22:26:20;;;;;;;2.03;1.73;;;;;;;;;;10800652;26;20003;-65
2024/04/17 22:31:14;;;;;;;6.38;1.73;;;;;;;;;;10803368;26;20436;-65
2024/04/17 22:36:08;;;;;;;4.35;1.45;;;;;;;;;;10803447;26;20004;-65
2024/04/17 22:41:03;;;;;;;1.83;1.73;;;;;;;;;;10789815;26;20011;-65
2024/04/17 22:45:56;;;;;;;1.65;1.55;;;;;;;;;;10798937;26;20018;-65
2024/04/17 22:50:50;;;;;;;2.83;1.90;;;;;;;;;;10801235;26;20004;-65
2024/04/17 22:55:45;;;;;;;8.88;2.28;;;;;;;;;;10765902;26;20012;-65
2024/04/17 23:00:39;;;;;;;4.47;1.85;;;;;;;;;;10770771;26;20000;-67
2024/04/17 23:05:33;;;;;;;2.08;1.92;;;;;;;;;;10762297;26;20068;-66
2024/04/17 23:10:27;;;;;;;7.05;1.90;;;;;;;;;;10769954;26;20004;-66
2024/04/17 23:15:27;;;;;;;2.83;2.00;;;;;;;;;;10766976;26;20453;-66
2024/04/17 23:20:21;;;;;;;4.07;2.58;;;;;;;;;;10765468;26;20019;-65
2024/04/17 23:25:16;;;;;;;3.65;3.00;;;;;;;;;;10771748;26;20012;-65
2024/04/17 23:30:11;;;;;;;2.83;2.10;;;;;;;;;;10773093;26;20018;-65
2024/04/17 23:35:05;;;;;;;2.85;2.00;;;;;;;;;;10779574;26;20023;-65
2024/04/17 23:39:59;;;;;;;3.08;2.53;;;;;;;;;;10799781;26;20089;-65
2024/04/17 23:44:56;;;;;;;2.90;1.92;;;;;;;;;;10800366;26;20008;-65
2024/04/17 23:49:50;;;;;;;3.53;2.38;;;;;;;;;;10768969;26;20016;-66
2024/04/17 23:54:45;;;;;;;4.97;2.42;;;;;;;;;;10828172;26;20004;-66
2024/04/17 23:59:38;;;;;;;2.80;2.08;;;;;;;;;;10827468;26;20008;-66
